Terminal Aerodrome Forecast
Issued by NWS Detroit/Pontiac, MI

Home | Current Version | Previous Version | Text Only | Print | Product List | Glossary On
Versions: 1 2 3 4 5 6 7 8 9 10 11 12 13 14 15 16 17 18 19 20 21 22 23 24 25 26 27 28 29
000
FTUS43 KDTX 012300
TAFDTW
TAF
KDTW 012327Z 0200/0306 13004KT P6SM FEW040 SCT200
     FM020200 15004KT P6SM BKN200
     FM020800 16004KT 1SM BR BKN005
     FM021400 16007KT P6SM BKN060 OVC150
     FM022200 16010KT P6SM BKN050 OVC100=

USA.gov is the U.S. government's official web portal to all federal, state and local government web resources and services.